createdAt,value
2018-11-06T00:01:20.038Z,14.37
2018-11-06T00:03:48.397Z,15.53
2018-11-06T00:06:15.573Z,13.93
2018-11-06T00:08:42.733Z,15.83
2018-11-06T00:11:10.952Z,14.53
2018-11-06T00:13:38.397Z,12.97
2018-11-06T00:16:06.168Z,14.20
2018-11-06T00:18:40.133Z,13.20
2018-11-06T00:21:07.321Z,14.67
2018-11-06T00:23:34.503Z,14.40
2018-11-06T00:26:01.706Z,13.63
2018-11-06T00:28:28.889Z,12.13
2018-11-06T00:30:56.189Z,13.60
2018-11-06T00:33:23.362Z,12.87
2018-11-06T00:35:50.569Z,12.07
2018-11-06T00:38:17.746Z,13.40
2018-11-06T00:40:44.942Z,12.87
2018-11-06T00:43:12.108Z,11.53
2018-11-06T00:45:39.290Z,12.27
2018-11-06T00:48:06.509Z,12.57
2018-11-06T00:50:33.748Z,12.60
2018-11-06T00:53:00.916Z,12.87
2018-11-06T00:55:28.117Z,11.83
2018-11-06T00:57:55.305Z,10.47
2018-11-06T01:00:22.605Z,11.83
2018-11-06T01:02:49.883Z,11.27
2018-11-06T01:05:17.625Z,11.33
2018-11-06T01:07:47.238Z,12.33
2018-11-06T01:10:14.439Z,14.70
2018-11-06T01:12:41.641Z,14.83
2018-11-06T01:15:10.784Z,14.80
2018-11-06T01:17:37.966Z,15.30
2018-11-06T01:20:07.636Z,15.70
2018-11-06T01:22:34.804Z,16.13
2018-11-06T01:25:02.036Z,16.27
2018-11-06T01:27:29.223Z,15.63
2018-11-06T01:29:56.402Z,17.13
2018-11-06T01:32:23.574Z,18.07
2018-11-06T01:34:50.784Z,17.57
2018-11-06T01:37:17.953Z,16.43
2018-11-06T01:39:45.104Z,14.60
2018-11-06T01:42:12.267Z,15.23
2018-11-06T01:44:39.469Z,13.90
2018-11-06T01:47:06.656Z,14.70
2018-11-06T01:49:33.855Z,14.00
2018-11-06T01:52:07.852Z,14.70
2018-11-06T01:54:41.776Z,13.97
2018-11-06T01:57:08.940Z,13.80
2018-11-06T01:59:36.100Z,13.70
2018-11-06T02:02:03.337Z,13.53
2018-11-06T02:04:30.502Z,14.07
2018-11-06T02:06:57.679Z,14.03
2018-11-06T02:09:24.849Z,15.17
2018-11-06T02:11:52.036Z,13.73
2018-11-06T02:14:19.203Z,13.80
2018-11-06T02:16:46.411Z,13.67
2018-11-06T02:21:48.147Z,13.73
2018-11-06T02:24:15.398Z,13.47
2018-11-06T02:26:42.569Z,13.27
2018-11-06T02:29:09.745Z,13.43
2018-11-06T02:31:36.937Z,13.40
2018-11-06T02:34:04.548Z,13.60
2018-11-06T02:36:31.745Z,14.87
2018-11-06T02:38:58.904Z,13.97
2018-11-06T02:41:26.071Z,13.03
2018-11-06T02:43:53.241Z,15.53
2018-11-06T02:46:20.401Z,14.83
2018-11-06T02:48:47.620Z,16.17
2018-11-06T02:51:14.785Z,15.57
2018-11-06T02:53:42.002Z,15.40
2018-11-06T02:56:09.184Z,17.70
2018-11-06T02:58:36.349Z,15.17
2018-11-06T03:01:03.592Z,14.53
2018-11-06T03:03:36.565Z,14.40
2018-11-06T03:06:03.753Z,14.50
2018-11-06T03:08:30.924Z,15.73
2018-11-06T03:10:58.111Z,15.00
2018-11-06T03:13:25.277Z,14.60
2018-11-06T03:15:52.464Z,14.57
2018-11-06T03:18:19.641Z,15.83
2018-11-06T03:20:46.809Z,14.70
2018-11-06T03:23:13.981Z,14.23
2018-11-06T03:25:41.148Z,14.13
2018-11-06T03:28:08.322Z,16.07
2018-11-06T03:30:35.480Z,15.93
2018-11-06T03:33:02.670Z,15.70
2018-11-06T03:35:29.840Z,15.30
2018-11-06T03:37:57.001Z,14.73
2018-11-06T03:40:24.168Z,14.77
2018-11-06T03:42:51.344Z,14.77
2018-11-06T03:45:18.524Z,14.97
2018-11-06T03:47:45.706Z,15.97
2018-11-06T03:50:13.092Z,17.97
2018-11-06T03:52:40.296Z,18.00
2018-11-06T03:55:07.710Z,17.90
2018-11-06T03:57:41.862Z,19.00
2018-11-06T04:00:11.432Z,18.67
2018-11-06T04:02:39.081Z,18.57
2018-11-06T04:05:06.495Z,19.83
2018-11-06T04:07:33.761Z,20.10
2018-11-06T04:10:00.941Z,18.93
2018-11-06T04:12:28.108Z,19.40
2018-11-06T04:17:29.249Z,18.13
2018-11-06T04:19:56.449Z,17.73
2018-11-06T04:22:23.617Z,18.67
2018-11-06T04:24:50.829Z,18.13
2018-11-06T04:27:17.993Z,17.70
2018-11-06T04:29:45.177Z,17.53
2018-11-06T04:32:12.338Z,16.50
2018-11-06T04:34:39.537Z,16.03
2018-11-06T04:37:06.722Z,16.33
2018-11-06T04:39:33.896Z,16.93
2018-11-06T04:42:01.048Z,18.13
2018-11-06T04:44:28.233Z,18.23
2018-11-06T04:46:55.384Z,18.40
2018-11-06T04:49:22.650Z,19.17
2018-11-06T04:51:49.822Z,17.30
2018-11-06T04:54:17.005Z,16.97
2018-11-06T04:56:44.181Z,15.57
2018-11-06T04:59:11.353Z,15.83
2018-11-06T05:01:38.536Z,16.10
2018-11-06T05:04:05.730Z,16.97
2018-11-06T05:06:32.921Z,16.80
2018-11-06T05:09:00.088Z,17.53
2018-11-06T05:11:27.261Z,18.60
2018-11-06T05:13:54.480Z,16.07
2018-11-06T05:16:21.637Z,15.10
2018-11-06T05:18:48.814Z,15.67
2018-11-06T05:21:15.991Z,14.97
2018-11-06T05:23:43.148Z,14.53
2018-11-06T05:26:10.342Z,13.83
2018-11-06T05:28:37.525Z,16.23
2018-11-06T05:31:04.845Z,16.60
2018-11-06T05:33:32.018Z,16.63
2018-11-06T05:35:59.200Z,16.57
2018-11-06T05:38:26.384Z,17.80
2018-11-06T05:40:55.949Z,17.23
2018-11-06T05:43:23.128Z,18.10
2018-11-06T05:45:51.168Z,19.13
2018-11-06T05:48:18.430Z,18.67
2018-11-06T05:50:45.880Z,20.77
2018-11-06T05:53:13.108Z,21.43
2018-11-06T05:55:40.394Z,22.63
2018-11-06T05:58:07.741Z,20.67
2018-11-06T06:00:35.020Z,19.03
2018-11-06T06:03:02.166Z,20.73
2018-11-06T06:05:29.325Z,19.63
2018-11-06T06:07:56.497Z,18.87
2018-11-06T06:10:23.808Z,19.03
2018-11-06T06:12:50.984Z,19.90
2018-11-06T06:15:18.201Z,20.23
2018-11-06T06:17:45.381Z,19.30
2018-11-06T06:20:12.641Z,20.53
2018-11-06T06:22:39.824Z,19.93
2018-11-06T06:25:07.305Z,20.87
2018-11-06T06:27:34.535Z,21.13
2018-11-06T06:30:01.691Z,22.63
2018-11-06T06:32:28.886Z,21.53
2018-11-06T06:34:56.117Z,19.03
2018-11-06T06:37:23.253Z,18.03
2018-11-06T06:39:50.515Z,18.77
2018-11-06T06:42:17.653Z,18.53
2018-11-06T06:44:44.834Z,17.60
2018-11-06T06:47:12.013Z,18.23
2018-11-06T06:49:39.170Z,18.13
2018-11-06T06:52:06.401Z,18.83
2018-11-06T06:54:33.744Z,18.00
2018-11-06T06:57:00.765Z,17.60
2018-11-06T07:02:01.971Z,18.07
2018-11-06T07:04:29.138Z,18.57
2018-11-06T07:06:56.304Z,18.77
2018-11-06T07:11:57.532Z,17.73
2018-11-06T07:14:24.704Z,19.63
2018-11-06T07:16:51.888Z,20.13
2018-11-06T07:19:19.065Z,20.10
2018-11-06T07:21:46.228Z,19.60
2018-11-06T07:24:13.654Z,20.30
2018-11-06T07:26:40.812Z,20.53
2018-11-06T07:29:07.980Z,20.53
2018-11-06T07:31:35.144Z,19.80
2018-11-06T07:34:02.341Z,21.37
2018-11-06T07:36:29.500Z,21.43
2018-11-06T07:38:56.672Z,20.10
2018-11-06T07:44:28.982Z,18.60
2018-11-06T07:46:56.154Z,21.80
2018-11-06T07:49:23.388Z,21.87
2018-11-06T07:51:50.637Z,22.60
2018-11-06T07:54:17.944Z,20.20
2018-11-06T07:56:45.105Z,21.50
2018-11-06T07:59:12.292Z,20.80
2018-11-06T08:04:08.898Z,20.77
2018-11-06T08:06:36.089Z,21.17
2018-11-06T08:09:05.076Z,21.70
2018-11-06T08:11:32.350Z,22.30
2018-11-06T08:13:59.616Z,21.43
2018-11-06T08:17:31.825Z,22.20
2018-11-06T08:19:59.043Z,22.93
2018-11-06T08:22:26.252Z,21.70
2018-11-06T08:24:53.446Z,22.53
2018-11-06T08:27:20.630Z,22.53
2018-11-06T08:29:48.814Z,22.67
2018-11-06T08:32:16.332Z,23.97
2018-11-06T08:34:43.263Z,25.43
2018-11-06T08:37:12.314Z,23.27
2018-11-06T08:39:41.508Z,25.20
2018-11-06T08:42:09.720Z,24.80
2018-11-06T08:44:37.898Z,24.97
2018-11-06T08:47:05.314Z,25.70
2018-11-06T08:49:32.491Z,25.13
2018-11-06T08:52:00.488Z,27.03
2018-11-06T08:54:28.336Z,26.70
2018-11-06T08:56:56.526Z,24.33
2018-11-06T08:59:23.780Z,24.43
2018-11-06T09:01:51.848Z,25.07
2018-11-06T09:04:19.077Z,24.23
2018-11-06T09:06:46.294Z,26.37
2018-11-06T09:09:20.265Z,27.30
2018-11-06T09:11:47.800Z,27.23
2018-11-06T09:14:15.298Z,27.83
2018-11-06T09:16:42.529Z,26.27
2018-11-06T09:19:09.845Z,27.57
2018-11-06T09:21:37.090Z,26.47
2018-11-06T09:24:04.605Z,27.50
2018-11-06T09:26:38.464Z,26.60
2018-11-06T09:29:05.678Z,27.30
2018-11-06T09:31:32.873Z,27.53
2018-11-06T09:34:00.194Z,28.93
2018-11-06T09:36:27.797Z,29.33
2018-11-06T09:38:54.998Z,26.80
2018-11-06T09:41:22.391Z,28.97
2018-11-06T09:43:49.498Z,28.47
2018-11-06T09:46:16.702Z,28.60
2018-11-06T09:48:44.224Z,27.67
2018-11-06T09:51:11.465Z,27.30
2018-11-06T09:53:38.711Z,26.37
2018-11-06T09:56:06.231Z,26.17
2018-11-06T09:58:33.460Z,27.23
2018-11-06T10:01:00.649Z,26.87
2018-11-06T10:03:27.985Z,26.43
2018-11-06T10:05:55.182Z,27.23
2018-11-06T10:08:22.368Z,26.87
2018-11-06T10:10:49.560Z,26.53
2018-11-06T10:13:16.844Z,26.37
2018-11-06T10:15:44.087Z,27.13
2018-11-06T10:18:11.225Z,26.10
2018-11-06T10:20:38.400Z,26.77
2018-11-06T10:23:05.628Z,27.27
2018-11-06T10:25:33.669Z,27.07
2018-11-06T10:28:03.084Z,25.83
2018-11-06T10:30:30.269Z,25.50
2018-11-06T10:32:58.433Z,25.83
2018-11-06T10:35:25.718Z,25.90
2018-11-06T10:37:52.932Z,25.47
2018-11-06T10:40:21.189Z,25.33
2018-11-06T10:42:48.551Z,24.70
2018-11-06T10:45:16.300Z,24.40
2018-11-06T10:47:43.664Z,24.60
2018-11-06T10:50:11.835Z,25.53
2018-11-06T10:52:39.117Z,24.40
2018-11-06T10:55:06.740Z,25.50
2018-11-06T10:57:34.117Z,24.33
2018-11-06T11:00:01.296Z,24.97
2018-11-06T11:02:34.141Z,23.67
2018-11-06T11:05:01.421Z,23.77
2018-11-06T11:07:28.596Z,24.70
2018-11-06T11:09:55.769Z,21.97
2018-11-06T11:12:22.985Z,22.97
2018-11-06T11:14:50.216Z,22.37
2018-11-06T11:17:17.430Z,21.03
2018-11-06T11:19:44.610Z,21.63
2018-11-06T11:22:11.893Z,20.83
2018-11-06T11:24:39.069Z,22.67
2018-11-06T11:27:06.871Z,22.17
2018-11-06T11:29:35.463Z,21.27
2018-11-06T11:32:04.024Z,21.33
2018-11-06T11:34:32.418Z,20.03
2018-11-06T11:36:59.577Z,19.20
2018-11-06T11:39:26.844Z,19.33
2018-11-06T11:41:53.999Z,19.37
2018-11-06T11:44:21.245Z,17.97
2018-11-06T11:46:48.890Z,19.30
2018-11-06T11:49:16.138Z,19.60
2018-11-06T11:51:43.301Z,19.00
2018-11-06T11:54:10.600Z,17.80
2018-11-06T11:56:37.801Z,18.20
2018-11-06T11:59:05.013Z,19.13
2018-11-06T12:01:32.200Z,20.03
2018-11-06T12:03:59.395Z,18.90
2018-11-06T12:06:26.564Z,18.13
2018-11-06T12:08:53.786Z,20.73
2018-11-06T12:11:21.020Z,19.70
2018-11-06T12:13:48.206Z,18.80
2018-11-06T12:16:15.420Z,18.23
2018-11-06T12:18:42.605Z,17.37
2018-11-06T12:21:09.773Z,18.10
2018-11-06T12:23:36.985Z,18.10
2018-11-06T12:26:04.509Z,18.80
2018-11-06T12:28:31.811Z,17.07
2018-11-06T12:30:58.975Z,17.57
2018-11-06T12:33:26.765Z,19.07
2018-11-06T12:38:27.976Z,18.63
2018-11-06T12:40:55.216Z,17.13
2018-11-06T12:43:22.399Z,18.60
2018-11-06T12:45:50.728Z,18.67
2018-11-06T12:48:17.918Z,18.57
2018-11-06T12:50:45.104Z,18.60
2018-11-06T12:53:13.308Z,17.80
2018-11-06T12:55:41.758Z,18.80
2018-11-06T12:58:10.472Z,17.30
2018-11-06T13:00:38.171Z,17.47
2018-11-06T13:03:05.357Z,17.07
2018-11-06T13:05:34.137Z,17.70
2018-11-06T13:08:01.760Z,18.27
2018-11-06T13:10:29.696Z,17.93
2018-11-06T13:12:56.862Z,16.07
2018-11-06T13:15:24.972Z,17.23
2018-11-06T13:17:52.101Z,16.37
2018-11-06T13:20:19.287Z,15.73
2018-11-06T13:22:46.457Z,18.27
2018-11-06T13:25:13.752Z,16.73
2018-11-06T13:27:41.402Z,17.03
2018-11-06T13:30:11.818Z,17.17
2018-11-06T13:32:42.808Z,16.03
2018-11-06T13:35:10.775Z,17.30
2018-11-06T13:37:37.956Z,17.13
2018-11-06T13:40:07.269Z,15.97
2018-11-06T13:42:35.983Z,16.07
2018-11-06T13:45:05.706Z,16.13
2018-11-06T13:47:33.435Z,15.83
2018-11-06T13:50:01.467Z,16.83
2018-11-06T13:52:28.637Z,16.27
2018-11-06T13:54:56.688Z,16.13
2018-11-06T13:57:24.649Z,16.17
2018-11-06T13:59:51.832Z,16.93
2018-11-06T14:02:19.001Z,15.30
2018-11-06T14:04:46.187Z,16.97
2018-11-06T14:07:13.359Z,16.13
2018-11-06T14:09:40.553Z,15.63
2018-11-06T14:12:07.726Z,16.10
2018-11-06T14:14:34.892Z,16.27
2018-11-06T14:17:02.060Z,16.67
2018-11-06T14:19:29.276Z,16.10
2018-11-06T14:21:56.441Z,15.13
2018-11-06T14:24:23.625Z,14.67
2018-11-06T14:26:51.035Z,15.97
2018-11-06T14:29:18.176Z,15.23
2018-11-06T14:31:45.362Z,13.77
2018-11-06T14:34:12.629Z,14.40
2018-11-06T14:36:39.804Z,16.50
2018-11-06T14:39:07.295Z,14.17
2018-11-06T14:41:34.847Z,13.97
2018-11-06T14:44:02.012Z,14.50
2018-11-06T14:46:29.978Z,15.03
2018-11-06T14:48:57.355Z,14.37
2018-11-06T14:51:24.453Z,14.47
2018-11-06T14:53:51.610Z,13.30
2018-11-06T14:56:19.083Z,15.67
2018-11-06T14:58:47.047Z,18.87
2018-11-06T15:01:14.755Z,18.17
2018-11-06T15:03:42.522Z,17.43
2018-11-06T15:06:09.986Z,15.73
2018-11-06T15:08:39.435Z,15.73
2018-11-06T15:11:06.925Z,16.60
2018-11-06T15:13:35.033Z,15.73
2018-11-06T15:16:02.474Z,15.50
2018-11-06T15:18:30.975Z,16.30
2018-11-06T15:20:58.952Z,14.40
2018-11-06T15:23:27.145Z,14.83
2018-11-06T15:25:54.885Z,17.50
2018-11-06T15:28:22.361Z,17.53
2018-11-06T15:30:51.057Z,16.93
2018-11-06T15:33:20.471Z,17.30
2018-11-06T15:35:48.415Z,17.33
2018-11-06T15:38:17.471Z,17.00
2018-11-06T15:40:45.933Z,18.40
2018-11-06T15:43:14.285Z,17.17
2018-11-06T15:45:53.581Z,17.30
2018-11-06T15:48:21.202Z,17.00
2018-11-06T15:50:49.940Z,16.03
2018-11-06T15:53:19.034Z,16.80
2018-11-06T15:55:49.463Z,15.83
2018-11-06T15:58:17.155Z,16.70
2018-11-06T16:00:45.568Z,15.90
2018-11-06T16:03:15.096Z,15.63
2018-11-06T16:05:42.456Z,16.50
2018-11-06T16:08:09.627Z,17.23
2018-11-06T16:10:36.848Z,17.73
2018-11-06T16:13:04.752Z,16.70
2018-11-06T16:15:32.049Z,16.53
2018-11-06T16:17:59.150Z,17.37
2018-11-06T16:20:26.332Z,19.00
2018-11-06T16:22:53.625Z,17.43
2018-11-06T16:25:20.790Z,17.50
2018-11-06T16:27:48.197Z,17.27
2018-11-06T16:30:16.777Z,15.97
2018-11-06T16:32:44.138Z,18.90
2018-11-06T16:35:12.723Z,20.37
2018-11-06T16:37:40.380Z,18.20
2018-11-06T16:40:08.136Z,17.30
2018-11-06T16:42:35.340Z,18.63
2018-11-06T16:45:02.532Z,19.47
2018-11-06T16:47:29.709Z,18.90
2018-11-06T16:49:56.872Z,18.70
2018-11-06T16:52:24.134Z,20.73
2018-11-06T16:54:51.310Z,19.93
2018-11-06T16:57:18.581Z,21.43
2018-11-06T16:59:45.759Z,21.73
2018-11-06T17:02:13.042Z,24.07
2018-11-06T17:04:40.551Z,24.07
2018-11-06T17:07:07.838Z,23.27
2018-11-06T17:09:35.092Z,23.80
2018-11-06T17:12:02.386Z,25.57
2018-11-06T17:14:29.593Z,25.67
2018-11-06T17:16:56.861Z,26.73
2018-11-06T17:19:24.036Z,26.83
2018-11-06T17:21:51.201Z,27.80
2018-11-06T17:24:18.381Z,27.87
2018-11-06T17:26:45.647Z,30.10
2018-11-06T17:29:12.944Z,30.67
2018-11-06T17:31:40.152Z,29.93
2018-11-06T17:34:07.350Z,30.17
2018-11-06T17:36:34.521Z,30.73
2018-11-06T17:39:01.777Z,31.63
2018-11-06T17:41:28.970Z,31.17
2018-11-06T17:43:56.242Z,32.47
2018-11-06T17:46:23.425Z,29.63
2018-11-06T17:48:50.648Z,29.50
2018-11-06T17:51:17.893Z,28.70
2018-11-06T17:53:45.156Z,27.60
2018-11-06T17:56:12.489Z,27.27
2018-11-06T17:58:40.033Z,27.33
2018-11-06T18:01:07.389Z,25.97
2018-11-06T18:03:34.705Z,26.97
2018-11-06T18:06:01.981Z,25.20
2018-11-06T18:08:29.156Z,28.10
2018-11-06T18:10:56.371Z,27.17
2018-11-06T18:13:24.057Z,28.23
2018-11-06T18:15:51.338Z,28.13
2018-11-06T18:18:18.546Z,29.17
2018-11-06T18:20:45.716Z,27.33
2018-11-06T18:23:13.087Z,26.43
2018-11-06T18:25:40.878Z,27.80
2018-11-06T18:28:08.696Z,27.97
2018-11-06T18:30:36.818Z,26.47
2018-11-06T18:33:04.755Z,27.80
2018-11-06T18:35:32.020Z,28.03
2018-11-06T18:37:59.913Z,28.33
2018-11-06T18:40:28.006Z,29.37
2018-11-06T18:42:55.169Z,28.97
2018-11-06T18:45:22.920Z,27.90
2018-11-06T18:47:50.110Z,27.07
2018-11-06T18:50:18.065Z,26.37
2018-11-06T18:52:46.685Z,28.20
2018-11-06T18:55:14.162Z,28.27
2018-11-06T18:57:41.660Z,27.53
2018-11-06T19:00:12.095Z,28.03
2018-11-06T19:02:39.549Z,30.37
2018-11-06T19:05:07.011Z,27.33
2018-11-06T19:07:34.570Z,28.13
2018-11-06T19:10:01.778Z,27.63
2018-11-06T19:12:28.954Z,26.33
2018-11-06T19:14:56.146Z,26.67
2018-11-06T19:17:23.405Z,25.13
2018-11-06T19:19:50.678Z,24.33
2018-11-06T19:22:17.840Z,25.33
2018-11-06T19:24:45.075Z,24.33
2018-11-06T19:27:12.296Z,24.47
2018-11-06T19:29:39.566Z,25.17
2018-11-06T19:32:06.815Z,22.97
2018-11-06T19:34:34.097Z,23.17
2018-11-06T19:37:01.324Z,22.40
2018-11-06T19:39:28.593Z,22.67
2018-11-06T19:41:55.823Z,24.03
2018-11-06T19:44:23.037Z,23.77
2018-11-06T19:46:50.221Z,23.80
2018-11-06T19:49:17.397Z,24.43
2018-11-06T19:51:44.580Z,23.57
2018-11-06T19:54:12.093Z,26.50
2018-11-06T19:56:39.249Z,26.47
2018-11-06T19:59:06.492Z,23.53
2018-11-06T20:01:33.754Z,23.63
2018-11-06T20:04:01.049Z,26.27
2018-11-06T20:06:28.248Z,25.10
2018-11-06T20:08:55.509Z,23.30
2018-11-06T20:11:22.771Z,24.90
2018-11-06T20:13:49.991Z,24.00
2018-11-06T20:16:17.341Z,24.80
2018-11-06T20:18:44.608Z,24.93
2018-11-06T20:21:11.887Z,25.70
2018-11-06T20:23:39.225Z,27.03
2018-11-06T20:26:06.414Z,27.33
2018-11-06T20:28:33.586Z,26.47
2018-11-06T20:31:00.809Z,26.63
2018-11-06T20:33:28.110Z,26.93
2018-11-06T20:35:55.206Z,27.10
2018-11-06T20:38:22.433Z,26.30
2018-11-06T20:40:49.696Z,27.93
2018-11-06T20:43:16.943Z,27.07
2018-11-06T20:45:44.222Z,28.57
2018-11-06T20:48:11.433Z,27.63
2018-11-06T20:50:38.718Z,25.50
2018-11-06T20:53:06.028Z,26.90
2018-11-06T20:55:33.129Z,28.60
2018-11-06T20:58:00.268Z,29.93
2018-11-06T21:00:28.412Z,28.27
2018-11-06T21:02:56.768Z,28.23
2018-11-06T21:05:23.988Z,27.57
2018-11-06T21:07:51.230Z,27.43
2018-11-06T21:10:20.789Z,27.73
2018-11-06T21:12:48.056Z,26.63
2018-11-06T21:15:15.330Z,27.07
2018-11-06T21:17:42.665Z,26.80
2018-11-06T21:20:10.939Z,26.50
2018-11-06T21:22:38.108Z,27.67
2018-11-06T21:25:05.881Z,25.83
2018-11-06T21:27:33.065Z,27.73
2018-11-06T21:30:07.784Z,27.40
2018-11-06T21:32:34.976Z,26.70
2018-11-06T21:35:02.190Z,27.27
2018-11-06T21:37:29.414Z,26.47
2018-11-06T21:39:56.650Z,26.97
2018-11-06T21:42:23.823Z,28.70
2018-11-06T21:44:50.995Z,28.83
2018-11-06T21:47:18.184Z,26.03
2018-11-06T21:49:45.365Z,27.40
2018-11-06T21:52:12.596Z,26.43
2018-11-06T21:54:39.907Z,27.30
2018-11-06T21:57:07.097Z,23.97
2018-11-06T21:59:34.306Z,25.17
2018-11-06T22:02:01.528Z,26.53
2018-11-06T22:04:28.701Z,26.90
2018-11-06T22:06:55.912Z,35.83
2018-11-06T22:09:23.088Z,32.30
2018-11-06T22:11:50.254Z,29.33
2018-11-06T22:14:17.526Z,30.10
2018-11-06T22:16:44.705Z,30.50
2018-11-06T22:19:11.894Z,33.37
2018-11-06T22:21:39.129Z,32.27
2018-11-06T22:24:06.250Z,31.60
2018-11-06T22:26:33.529Z,31.63
2018-11-06T22:29:00.700Z,32.33
2018-11-06T22:31:27.971Z,33.73
2018-11-06T22:33:55.175Z,33.10
2018-11-06T22:36:22.356Z,31.47
2018-11-06T22:38:49.521Z,30.47
2018-11-06T22:41:16.733Z,28.17
2018-11-06T22:43:43.900Z,30.33
2018-11-06T22:46:11.086Z,29.80
2018-11-06T22:48:38.280Z,28.13
2018-11-06T22:51:05.896Z,27.83
2018-11-06T22:53:33.292Z,27.30
2018-11-06T22:56:00.460Z,26.63
2018-11-06T22:58:27.642Z,27.07
2018-11-06T23:01:00.619Z,26.97
2018-11-06T23:03:27.829Z,25.47
2018-11-06T23:05:55.084Z,25.23
2018-11-06T23:08:23.261Z,27.70
2018-11-06T23:10:50.450Z,26.40
2018-11-06T23:13:17.695Z,26.63
2018-11-06T23:15:44.884Z,27.10
2018-11-06T23:18:12.052Z,28.87
2018-11-06T23:20:39.361Z,25.70
2018-11-06T23:23:06.516Z,28.40
2018-11-06T23:25:33.803Z,29.37
2018-11-06T23:28:00.985Z,29.63
2018-11-06T23:30:28.174Z,30.03
2018-11-06T23:32:55.386Z,28.67
2018-11-06T23:35:22.562Z,27.50
2018-11-06T23:37:49.821Z,27.20
2018-11-06T23:40:17.048Z,27.53
2018-11-06T23:42:44.226Z,27.90
2018-11-06T23:45:11.390Z,25.53
2018-11-06T23:47:38.553Z,25.47
2018-11-06T23:50:06.955Z,25.80
2018-11-06T23:52:34.135Z,25.17
2018-11-06T23:55:01.350Z,25.13
2018-11-06T23:57:29.320Z,26.37
2018-11-06T23:59:56.620Z,23.97
